createdAt,value
2023-04-29T00:00:58.801Z,23.4596
2023-04-29T00:02:00.269Z,23.4609
2023-04-29T00:03:01.807Z,23.4486
2023-04-29T00:04:03.142Z,23.4499
2023-04-29T00:05:04.611Z,23.4499
2023-04-29T00:06:06.029Z,23.4516
2023-04-29T00:07:07.325Z,23.4428
2023-04-29T00:08:08.782Z,23.4405
2023-04-29T00:09:10.145Z,23.4460
2023-04-29T00:10:11.592Z,23.4500
2023-04-29T00:11:13.051Z,23.4585
2023-04-29T00:12:14.435Z,23.4622
2023-04-29T00:13:15.906Z,23.4559
2023-04-29T00:14:17.348Z,23.4480
2023-04-29T00:15:18.756Z,23.4594
2023-04-29T00:16:20.100Z,23.4428
2023-04-29T00:17:21.648Z,23.4266
2023-04-29T00:18:22.906Z,23.4250
2023-04-29T00:19:24.533Z,23.4402
2023-04-29T00:20:25.835Z,23.4490
2023-04-29T00:21:27.294Z,23.4526
2023-04-29T00:22:28.749Z,23.4534
2023-04-29T00:23:30.122Z,23.4299
2023-04-29T00:24:31.655Z,23.4166
2023-04-29T00:25:33.009Z,23.4381
2023-04-29T00:26:34.486Z,23.4777
2023-04-29T00:27:35.807Z,23.4824
2023-04-29T00:28:37.246Z,23.4591
2023-04-29T00:29:38.694Z,23.4540
2023-04-29T00:30:40.153Z,23.4571
2023-04-29T00:31:41.511Z,23.4428
2023-04-29T00:32:42.987Z,23.4410
2023-04-29T00:33:44.372Z,23.4446
2023-04-29T00:34:45.882Z,23.4425
2023-04-29T00:35:47.224Z,23.4409
2023-04-29T00:36:48.680Z,23.4426
2023-04-29T00:37:50.076Z,23.4388
2023-04-29T00:38:51.502Z,23.4345
2023-04-29T00:39:53.178Z,23.4526
2023-04-29T00:40:54.432Z,23.4498
2023-04-29T00:41:55.770Z,23.4199
2023-04-29T00:42:57.262Z,23.4145
2023-04-29T00:43:58.627Z,23.4053
2023-04-29T00:45:00.164Z,23.4062
2023-04-29T00:46:01.539Z,23.4319
2023-04-29T00:47:02.964Z,23.4286
2023-04-29T00:48:04.435Z,23.4445
2023-04-29T00:49:05.805Z,23.4821
2023-04-29T00:50:07.224Z,23.5069
2023-04-29T00:51:08.692Z,23.5022
2023-04-29T00:52:10.037Z,23.4932
2023-04-29T00:53:11.488Z,23.5052
2023-04-29T00:54:12.905Z,23.5139
2023-04-29T00:55:14.391Z,23.5070
2023-04-29T00:56:15.834Z,23.4904
2023-04-29T00:57:17.235Z,23.4773
2023-04-29T00:58:18.624Z,23.4575
2023-04-29T00:59:20.063Z,23.4477
2023-04-29T01:00:21.555Z,23.4469
2023-04-29T01:01:22.950Z,23.4488
2023-04-29T01:02:24.377Z,23.4762
2023-04-29T01:03:25.873Z,23.4741
2023-04-29T01:04:27.169Z,23.4538
2023-04-29T01:05:28.596Z,23.4557
2023-04-29T01:06:30.081Z,23.4480
2023-04-29T01:07:31.488Z,23.4430
2023-04-29T01:08:32.861Z,23.4594
2023-04-29T01:09:34.277Z,23.4910
2023-04-29T01:10:35.823Z,23.4985
2023-04-29T01:11:37.277Z,23.4839
2023-04-29T01:12:38.654Z,23.4780
2023-04-29T01:13:40.138Z,23.4913
2023-04-29T01:14:41.417Z,23.5057
2023-04-29T01:15:42.910Z,23.5113
2023-04-29T01:16:44.233Z,23.5172
2023-04-29T01:17:45.794Z,23.5174
2023-04-29T01:18:47.113Z,23.5191
2023-04-29T01:19:48.592Z,23.5220
2023-04-29T01:20:49.966Z,23.5336
2023-04-29T01:21:51.486Z,23.5321
2023-04-29T01:22:52.877Z,23.5238
2023-04-29T01:23:54.249Z,23.5271
2023-04-29T01:24:55.724Z,23.5394
2023-04-29T01:25:57.096Z,23.5437
2023-04-29T01:26:58.517Z,23.5175
2023-04-29T01:28:00.031Z,23.4985
2023-04-29T01:29:01.399Z,23.4894
2023-04-29T01:30:02.842Z,23.4940
2023-04-29T01:31:04.252Z,23.5104
2023-04-29T01:32:05.673Z,23.5265
2023-04-29T01:33:07.141Z,23.5417
2023-04-29T01:34:08.550Z,23.5469
2023-04-29T01:35:09.903Z,23.5476
2023-04-29T01:36:11.375Z,23.5526
2023-04-29T01:37:12.759Z,23.5536
2023-04-29T01:38:14.270Z,23.5542
2023-04-29T01:39:15.624Z,23.5554
2023-04-29T01:40:17.074Z,23.5530
2023-04-29T01:41:18.491Z,23.5501
2023-04-29T01:42:19.932Z,23.5541
2023-04-29T01:43:21.371Z,23.5468
2023-04-29T01:44:22.794Z,23.5404
2023-04-29T01:45:24.167Z,23.5331
2023-04-29T01:46:25.661Z,23.5375
2023-04-29T01:47:27.059Z,23.5417
2023-04-29T01:48:28.506Z,23.5161
2023-04-29T01:49:29.875Z,23.4963
2023-04-29T01:50:31.329Z,23.4908
2023-04-29T01:51:32.724Z,23.4908
2023-04-29T01:52:34.156Z,23.4958
2023-04-29T01:53:35.585Z,23.4996
2023-04-29T01:54:37.096Z,23.4947
2023-04-29T01:55:38.459Z,23.4897
2023-04-29T01:56:39.966Z,23.4901
2023-04-29T01:57:41.367Z,23.4813
2023-04-29T01:58:42.764Z,23.4767
2023-04-29T01:59:44.125Z,23.4778
2023-04-29T02:00:45.689Z,23.4688
2023-04-29T02:01:46.974Z,23.4605
2023-04-29T02:02:48.513Z,23.4599
2023-04-29T02:03:50.050Z,23.4639
2023-04-29T02:04:51.371Z,23.4633
2023-04-29T02:05:52.673Z,23.4592
2023-04-29T02:06:54.129Z,23.4512
2023-04-29T02:07:55.528Z,23.4543
2023-04-29T02:08:56.989Z,23.4607
2023-04-29T02:09:58.287Z,23.4714
2023-04-29T02:10:59.834Z,23.4772
2023-04-29T02:12:01.227Z,23.4602
2023-04-29T02:13:02.700Z,23.4461
2023-04-29T02:14:04.096Z,23.4372
2023-04-29T02:15:05.526Z,23.4408
2023-04-29T02:16:06.921Z,23.4522
2023-04-29T02:17:08.347Z,23.4515
2023-04-29T02:18:09.761Z,23.4399
2023-04-29T02:19:11.812Z,23.4383
2023-04-29T02:20:12.628Z,23.4342
2023-04-29T02:21:14.086Z,23.4309
2023-04-29T02:22:15.480Z,23.4288
2023-04-29T02:23:16.956Z,23.4356
2023-04-29T02:24:18.359Z,23.4391
2023-04-29T02:25:19.772Z,23.4482
2023-04-29T02:26:21.141Z,23.4514
2023-04-29T02:27:22.598Z,23.4564
2023-04-29T02:28:23.991Z,23.4699
2023-04-29T02:29:25.510Z,23.4465
2023-04-29T02:30:26.843Z,23.4280
2023-04-29T02:31:28.295Z,23.4245
2023-04-29T02:32:29.807Z,23.4278
2023-04-29T02:33:31.157Z,23.4139
2023-04-29T02:34:32.603Z,23.4079
2023-04-29T02:35:33.976Z,23.4039
2023-04-29T02:36:35.450Z,23.3989
2023-04-29T02:37:36.880Z,23.3899
2023-04-29T02:38:38.341Z,23.3831
2023-04-29T02:39:39.693Z,23.3803
2023-04-29T02:40:41.141Z,23.3771
2023-04-29T02:41:42.498Z,23.3826
2023-04-29T02:42:43.966Z,23.3864
2023-04-29T02:43:45.383Z,23.3947
2023-04-29T02:44:46.867Z,23.3986
2023-04-29T02:45:48.256Z,23.3998
2023-04-29T02:46:49.689Z,23.4022
2023-04-29T02:47:51.032Z,23.4008
2023-04-29T02:48:52.548Z,23.3991
2023-04-29T02:49:54.128Z,23.4010
2023-04-29T02:50:55.414Z,23.4009
2023-04-29T02:51:56.819Z,23.4043
2023-04-29T02:52:58.276Z,23.3910
2023-04-29T02:53:59.730Z,23.3882
2023-04-29T02:55:01.068Z,23.3964
2023-04-29T02:56:02.533Z,23.3994
2023-04-29T02:57:03.985Z,23.4035
2023-04-29T02:58:05.397Z,23.4087
2023-04-29T02:59:06.827Z,23.4282
2023-04-29T03:00:08.269Z,23.4272
2023-04-29T03:01:09.718Z,23.4286
2023-04-29T03:02:11.165Z,23.4356
2023-04-29T03:03:12.593Z,23.4373
2023-04-29T03:04:13.909Z,23.4304
2023-04-29T03:05:15.408Z,23.4194
2023-04-29T03:06:16.761Z,23.4128
2023-04-29T03:07:18.157Z,23.4178
2023-04-29T03:08:19.633Z,23.4282
2023-04-29T03:09:21.061Z,23.4379
2023-04-29T03:10:22.545Z,23.4460
2023-04-29T03:11:23.930Z,23.4481
2023-04-29T03:12:25.336Z,23.4586
2023-04-29T03:13:26.802Z,23.4562
2023-04-29T03:14:28.170Z,23.4475
2023-04-29T03:15:29.694Z,23.4588
2023-04-29T03:16:31.076Z,23.4632
2023-04-29T03:17:32.531Z,23.4593
2023-04-29T03:18:33.893Z,23.4552
2023-04-29T03:19:35.370Z,23.4626
2023-04-29T03:20:36.784Z,23.4709
2023-04-29T03:21:38.183Z,23.4762
2023-04-29T03:22:39.588Z,23.4845
2023-04-29T03:23:41.038Z,23.5039
2023-04-29T03:24:42.510Z,23.5204
2023-04-29T03:25:44.023Z,23.5186
2023-04-29T03:26:45.269Z,23.5030
2023-04-29T03:27:46.726Z,23.4927
2023-04-29T03:28:48.111Z,23.4875
2023-04-29T03:29:49.587Z,23.4910
2023-04-29T03:30:51.019Z,23.5054
2023-04-29T03:31:52.439Z,23.5219
2023-04-29T03:32:53.887Z,23.5220
2023-04-29T03:33:55.258Z,23.5160
2023-04-29T03:34:56.561Z,23.5264
2023-04-29T03:35:58.135Z,23.5463
2023-04-29T03:36:59.593Z,23.5589
2023-04-29T03:38:01.072Z,23.5546
2023-04-29T03:39:02.455Z,23.5364
2023-04-29T03:40:03.923Z,23.5329
2023-04-29T03:41:05.341Z,23.5375
2023-04-29T03:42:06.733Z,23.5296
2023-04-29T03:43:08.141Z,23.5194
2023-04-29T03:44:09.606Z,23.5171
2023-04-29T03:45:10.965Z,23.5105
2023-04-29T03:46:12.493Z,23.5163
2023-04-29T03:47:13.843Z,23.5336
2023-04-29T03:48:15.270Z,23.5357
2023-04-29T03:49:16.656Z,23.5213
2023-04-29T03:50:18.036Z,23.5217
2023-04-29T03:51:19.534Z,23.5206
2023-04-29T03:52:20.975Z,23.5050
2023-04-29T03:53:22.365Z,23.4975
2023-04-29T03:54:23.787Z,23.4984
2023-04-29T03:55:25.192Z,23.4936
2023-04-29T03:56:26.709Z,23.5067
2023-04-29T03:57:28.034Z,23.5131
2023-04-29T03:58:29.486Z,23.5118
2023-04-29T03:59:30.896Z,23.5035
2023-04-29T04:00:32.284Z,23.4999
2023-04-29T04:01:33.787Z,23.5055
2023-04-29T04:02:35.408Z,23.5045
2023-04-29T04:03:36.701Z,23.4878
2023-04-29T04:04:38.212Z,23.4861
2023-04-29T04:05:39.338Z,23.4772
2023-04-29T04:06:40.912Z,23.4870
2023-04-29T04:07:42.290Z,23.5091
2023-04-29T04:08:43.766Z,23.5191
2023-04-29T04:09:45.174Z,23.5201
2023-04-29T04:10:46.560Z,23.5272
2023-04-29T04:11:47.998Z,23.5259
2023-04-29T04:12:49.419Z,23.5277
2023-04-29T04:13:50.800Z,23.5381
2023-04-29T04:14:52.276Z,23.5422
2023-04-29T04:15:53.675Z,23.5181
2023-04-29T04:16:55.165Z,23.5022
2023-04-29T04:17:56.550Z,23.5107
2023-04-29T04:18:57.983Z,23.5179
2023-04-29T04:19:59.346Z,23.5306
2023-04-29T04:21:00.821Z,23.5272
2023-04-29T04:22:02.223Z,23.5253
2023-04-29T04:23:03.656Z,23.5150
2023-04-29T04:24:05.100Z,23.4907
2023-04-29T04:25:06.490Z,23.4797
2023-04-29T04:26:07.876Z,23.4950
2023-04-29T04:27:09.354Z,23.5118
2023-04-29T04:28:10.806Z,23.5145
2023-04-29T04:29:12.159Z,23.5099
2023-04-29T04:30:13.581Z,23.5110
2023-04-29T04:31:15.112Z,23.5337
2023-04-29T04:32:16.460Z,23.5400
2023-04-29T04:33:17.919Z,23.4944
2023-04-29T04:34:19.332Z,23.4924
2023-04-29T04:35:20.741Z,23.4939
2023-04-29T04:36:22.158Z,23.4662
2023-04-29T04:37:23.631Z,23.4556
2023-04-29T04:38:25.023Z,23.4718
2023-04-29T04:39:26.455Z,23.4925
2023-04-29T04:40:27.909Z,23.5029
2023-04-29T04:41:29.254Z,23.5315
2023-04-29T04:42:30.771Z,23.5506
2023-04-29T04:43:32.068Z,23.5662
2023-04-29T04:44:33.660Z,23.5592
2023-04-29T04:45:34.985Z,23.5609
2023-04-29T04:46:36.439Z,23.5708
2023-04-29T04:47:37.799Z,23.5680
2023-04-29T04:48:39.330Z,23.5899
2023-04-29T04:49:40.755Z,23.5965
2023-04-29T04:50:42.159Z,23.5844
2023-04-29T04:51:43.572Z,23.6120
2023-04-29T04:52:45.069Z,23.6246
2023-04-29T04:53:46.501Z,23.6327
2023-04-29T04:54:47.927Z,23.6593
2023-04-29T04:55:49.341Z,23.6480
2023-04-29T04:56:50.802Z,23.6277
2023-04-29T04:57:52.169Z,23.6294
2023-04-29T04:58:53.620Z,23.6246
2023-04-29T04:59:55.064Z,23.5860
2023-04-29T05:00:56.510Z,23.5540
2023-04-29T05:01:57.862Z,23.5277
2023-04-29T05:02:59.519Z,23.5082
2023-04-29T05:04:00.871Z,23.4933
2023-04-29T05:05:02.158Z,23.5420
2023-04-29T05:06:03.536Z,23.5912
2023-04-29T05:07:05.026Z,23.6271
2023-04-29T05:08:06.478Z,23.6408
2023-04-29T05:09:07.892Z,23.6691
2023-04-29T05:10:09.270Z,23.6540
2023-04-29T05:11:10.762Z,23.6161
2023-04-29T05:12:12.118Z,23.5981
2023-04-29T05:13:13.605Z,23.5665
2023-04-29T05:14:15.060Z,23.5476
2023-04-29T05:15:16.455Z,23.5511
2023-04-29T05:16:17.874Z,23.5621
2023-04-29T05:17:19.329Z,23.5602
2023-04-29T05:18:20.702Z,23.5978
2023-04-29T05:19:22.173Z,23.6776
2023-04-29T05:20:23.537Z,23.7830
2023-04-29T05:21:25.019Z,23.9179
2023-04-29T05:22:26.381Z,24.0993
2023-04-29T05:23:27.893Z,24.4492
2023-04-29T05:24:29.286Z,24.7866
2023-04-29T05:25:30.676Z,24.9034
2023-04-29T05:26:32.118Z,24.9624
2023-04-29T05:27:33.556Z,25.0225
2023-04-29T05:28:35.030Z,24.9911
2023-04-29T05:29:36.393Z,24.9047
2023-04-29T05:30:38.000Z,24.7908
2023-04-29T05:31:39.220Z,24.6695
2023-04-29T05:32:40.738Z,24.5577
2023-04-29T05:33:42.180Z,24.4531
2023-04-29T05:34:43.629Z,24.3612
2023-04-29T05:35:44.985Z,24.2778
2023-04-29T05:36:46.337Z,24.2020
2023-04-29T05:37:47.870Z,24.1281
2023-04-29T05:38:49.287Z,24.0837
2023-04-29T05:39:50.956Z,24.0603
2023-04-29T05:40:52.084Z,24.0423
2023-04-29T05:41:53.565Z,24.0177
2023-04-29T05:42:54.997Z,23.9686
2023-04-29T05:43:56.444Z,23.9253
2023-04-29T05:44:57.861Z,23.8977
2023-04-29T05:45:59.368Z,23.8673
2023-04-29T05:47:00.696Z,23.8385
2023-04-29T05:48:02.268Z,23.8161
2023-04-29T05:49:03.538Z,23.8033
2023-04-29T05:50:05.026Z,23.7906
2023-04-29T05:51:06.348Z,23.7681
2023-04-29T05:52:07.820Z,23.7540
2023-04-29T05:53:09.190Z,23.7399
2023-04-29T05:54:10.713Z,23.7185
2023-04-29T05:55:12.080Z,23.7057
2023-04-29T05:56:13.498Z,23.7017
2023-04-29T05:57:14.895Z,23.6922
2023-04-29T05:58:16.381Z,23.6745
2023-04-29T05:59:17.817Z,23.6813
2023-04-29T06:00:19.263Z,23.6853
2023-04-29T06:01:20.610Z,23.7043
2023-04-29T06:02:22.221Z,23.6995
2023-04-29T06:03:23.581Z,23.6767
2023-04-29T06:04:25.262Z,23.6514
2023-04-29T06:05:26.593Z,23.6080
2023-04-29T06:06:28.056Z,23.5593
2023-04-29T06:07:29.169Z,23.5212
2023-04-29T06:08:30.653Z,23.5262
2023-04-29T06:09:32.007Z,23.5153
2023-04-29T06:10:33.523Z,23.4945
2023-04-29T06:11:34.869Z,23.4405
2023-04-29T06:12:36.352Z,23.4004
2023-04-29T06:13:37.737Z,23.4184
2023-04-29T06:14:39.207Z,23.4099
2023-04-29T06:15:40.628Z,23.3927
2023-04-29T06:16:42.060Z,23.3710
2023-04-29T06:17:43.468Z,23.3299
2023-04-29T06:18:44.933Z,23.3357
2023-04-29T06:19:46.219Z,23.3376
2023-04-29T06:20:47.831Z,23.3390
2023-04-29T06:21:49.175Z,23.3526
2023-04-29T06:22:50.601Z,23.3707
2023-04-29T06:23:52.016Z,23.3877
2023-04-29T06:24:53.466Z,23.4007
2023-04-29T06:25:54.813Z,23.4035
2023-04-29T06:26:56.398Z,23.4158
2023-04-29T06:27:57.690Z,23.4240
2023-04-29T06:28:59.151Z,23.4276
2023-04-29T06:30:00.482Z,23.4260
2023-04-29T06:31:02.072Z,23.4245
2023-04-29T06:32:03.528Z,23.4528
2023-04-29T06:33:04.980Z,23.4868
2023-04-29T06:34:06.289Z,23.3918
2023-04-29T06:35:07.799Z,23.0891
2023-04-29T06:36:09.249Z,22.8208
2023-04-29T06:37:10.601Z,22.6668
2023-04-29T06:38:11.971Z,22.6178
2023-04-29T06:39:13.401Z,22.5385
2023-04-29T06:40:14.830Z,22.4782
2023-04-29T06:41:16.203Z,22.3831
2023-04-29T06:42:17.768Z,22.3198
2023-04-29T06:43:19.187Z,22.1550
2023-04-29T06:44:20.548Z,22.1548
2023-04-29T06:45:21.863Z,22.2165
2023-04-29T06:46:23.446Z,22.1998
2023-04-29T06:47:24.882Z,22.1156
2023-04-29T06:48:26.243Z,22.1422
2023-04-29T06:49:27.660Z,22.2644
2023-04-29T06:50:29.132Z,22.3176
2023-04-29T06:51:30.503Z,22.2682
2023-04-29T06:52:32.023Z,22.2632
2023-04-29T06:53:33.404Z,22.2246
2023-04-29T06:54:34.840Z,22.0646
2023-04-29T06:55:36.234Z,21.8913
2023-04-29T06:56:37.663Z,21.8274
2023-04-29T06:57:39.146Z,21.8720
2023-04-29T06:58:40.643Z,21.8630
2023-04-29T06:59:41.921Z,21.8300
2023-04-29T07:00:43.458Z,21.8584
2023-04-29T07:01:46.072Z,22.0615
2023-04-29T07:02:46.306Z,22.2996
2023-04-29T07:03:48.013Z,22.4785
2023-04-29T07:04:49.212Z,22.6139
2023-04-29T07:05:50.515Z,22.7133
2023-04-29T07:06:51.948Z,22.7850
2023-04-29T07:07:53.291Z,22.8862
2023-04-29T07:08:56.901Z,22.9887
2023-04-29T07:09:56.234Z,23.0743
2023-04-29T07:10:57.648Z,23.1108
2023-04-29T07:11:59.039Z,23.1312
2023-04-29T07:13:00.490Z,23.1716
2023-04-29T07:14:01.978Z,23.1870
2023-04-29T07:15:03.363Z,23.2253
2023-04-29T07:16:04.750Z,23.2497
2023-04-29T07:17:06.432Z,23.2864
2023-04-29T07:18:07.696Z,23.3522
2023-04-29T07:19:09.051Z,23.4034
2023-04-29T07:20:10.503Z,23.4635
2023-04-29T07:21:11.938Z,23.5396
2023-04-29T07:22:13.322Z,23.5708
2023-04-29T07:23:14.844Z,23.5879
2023-04-29T07:24:16.253Z,23.6123
2023-04-29T07:25:17.697Z,23.6331
2023-04-29T07:26:19.036Z,23.6688
2023-04-29T07:27:20.521Z,23.6820
2023-04-29T07:28:21.876Z,23.7050
2023-04-29T07:29:23.412Z,23.7145
2023-04-29T07:30:24.799Z,23.7125
2023-04-29T07:31:26.205Z,23.7153
2023-04-29T07:32:27.660Z,23.7359
2023-04-29T07:33:29.067Z,23.7558
2023-04-29T07:34:30.487Z,23.7567
2023-04-29T07:35:32.035Z,23.7806
2023-04-29T07:36:33.313Z,23.7922
2023-04-29T07:37:34.760Z,23.7851
2023-04-29T07:38:36.237Z,23.7818
2023-04-29T07:39:37.726Z,23.8178
2023-04-29T07:40:39.125Z,23.8464
2023-04-29T07:41:40.563Z,23.8656
2023-04-29T07:42:41.956Z,23.8758
2023-04-29T07:43:43.354Z,23.8980
2023-04-29T07:44:44.837Z,23.9251
2023-04-29T07:45:46.258Z,23.9741
2023-04-29T07:46:47.797Z,24.0102
2023-04-29T07:47:49.136Z,24.0177
2023-04-29T07:48:50.575Z,24.0153
2023-04-29T07:49:51.988Z,24.0219
2023-04-29T07:50:53.288Z,24.0436
2023-04-29T07:51:54.807Z,24.0809
2023-04-29T07:52:56.258Z,24.0821
2023-04-29T07:53:57.638Z,24.1080
2023-04-29T07:54:59.141Z,24.0922
2023-04-29T07:56:00.567Z,24.0910
2023-04-29T07:57:01.972Z,24.1143
2023-04-29T07:58:03.340Z,24.1549
2023-04-29T07:59:04.785Z,24.1276
2023-04-29T08:00:06.148Z,24.0985
2023-04-29T08:01:07.636Z,24.1490
2023-04-29T08:02:09.050Z,24.1808
2023-04-29T08:03:10.626Z,24.1509
2023-04-29T08:04:12.105Z,24.1163
2023-04-29T08:05:13.659Z,24.0832
2023-04-29T08:06:14.844Z,24.0988
2023-04-29T08:07:16.254Z,24.1256
2023-04-29T08:08:17.599Z,24.1552
2023-04-29T08:09:19.001Z,24.0943
2023-04-29T08:10:20.495Z,24.0342
2023-04-29T08:11:21.863Z,24.0193
2023-04-29T08:12:23.319Z,24.0692
2023-04-29T08:13:24.717Z,24.1208
2023-04-29T08:14:26.170Z,24.0863
2023-04-29T08:15:27.609Z,24.0836
2023-04-29T08:16:29.078Z,24.1072
2023-04-29T08:17:30.518Z,24.1301
2023-04-29T08:18:31.912Z,24.1530
2023-04-29T08:19:33.336Z,24.1448
2023-04-29T08:20:34.799Z,24.1743
2023-04-29T08:21:36.124Z,24.2060
2023-04-29T08:22:37.520Z,24.1970
2023-04-29T08:23:38.983Z,24.1533
2023-04-29T08:24:40.458Z,24.1423
2023-04-29T08:25:41.900Z,24.0989
2023-04-29T08:26:43.292Z,24.0983
2023-04-29T08:27:44.685Z,24.1169
2023-04-29T08:28:46.142Z,24.1082
2023-04-29T08:29:47.543Z,24.1012
2023-04-29T08:30:48.962Z,24.0948
2023-04-29T08:31:50.486Z,24.1043
2023-04-29T08:32:51.920Z,24.0833
2023-04-29T08:33:53.227Z,24.1253
2023-04-29T08:34:54.939Z,24.1258
2023-04-29T08:35:56.222Z,24.1133
2023-04-29T08:36:57.578Z,24.1818
2023-04-29T08:37:58.924Z,24.1976
2023-04-29T08:39:00.402Z,24.2118
2023-04-29T08:40:01.793Z,24.2159
2023-04-29T08:41:03.362Z,24.2303
2023-04-29T08:42:04.597Z,24.2503
2023-04-29T08:43:06.114Z,24.2669
2023-04-29T08:44:07.521Z,24.2622
2023-04-29T08:45:08.992Z,24.2754
2023-04-29T08:46:10.411Z,24.2872
2023-04-29T08:47:11.820Z,24.2746
2023-04-29T08:48:13.280Z,24.1896
2023-04-29T08:49:14.673Z,24.1858
2023-04-29T08:50:15.994Z,24.1521
2023-04-29T08:51:17.577Z,24.1468
2023-04-29T08:52:18.926Z,24.1506
2023-04-29T08:53:20.354Z,24.1492
2023-04-29T08:54:21.797Z,24.1916
2023-04-29T08:55:23.258Z,24.2327
2023-04-29T08:56:26.721Z,24.2592
2023-04-29T08:57:26.036Z,24.2847
2023-04-29T08:58:27.479Z,24.3057
2023-04-29T08:59:28.965Z,24.3376
2023-04-29T09:00:30.342Z,24.3620
2023-04-29T09:01:31.853Z,24.3047
2023-04-29T09:02:33.361Z,24.3110
2023-04-29T09:03:34.720Z,24.3391
2023-04-29T09:04:36.150Z,24.3740
2023-04-29T09:05:37.490Z,24.4085
2023-04-29T09:06:38.857Z,24.4168
2023-04-29T09:07:40.364Z,24.4326
2023-04-29T09:08:41.765Z,24.4636
2023-04-29T09:09:43.169Z,24.4742
2023-04-29T09:10:44.597Z,24.4716
2023-04-29T09:11:46.016Z,24.4257
2023-04-29T09:12:47.501Z,24.3941
2023-04-29T09:13:48.823Z,24.4055
2023-04-29T09:14:50.536Z,24.4308
2023-04-29T09:15:51.697Z,24.4410
2023-04-29T09:16:53.303Z,24.4305
2023-04-29T09:17:54.632Z,24.4224
2023-04-29T09:18:55.999Z,24.4116
2023-04-29T09:19:57.306Z,24.4054
2023-04-29T09:20:58.863Z,24.4361
2023-04-29T09:22:00.293Z,24.4315
2023-04-29T09:23:01.806Z,24.4776
2023-04-29T09:24:03.122Z,24.4914
2023-04-29T09:25:04.564Z,24.5041
2023-04-29T09:26:05.954Z,24.5052
2023-04-29T09:27:07.465Z,24.4878
2023-04-29T09:28:08.889Z,24.4671
2023-04-29T09:29:10.298Z,24.5052
2023-04-29T09:30:11.671Z,24.5523
2023-04-29T09:31:13.168Z,24.7066
2023-04-29T09:32:14.586Z,24.7895
2023-04-29T09:33:16.071Z,24.8672
2023-04-29T09:34:17.327Z,24.8789
2023-04-29T09:35:18.885Z,24.8878
2023-04-29T09:36:20.257Z,24.9195
2023-04-29T09:37:21.773Z,24.9050
2023-04-29T09:38:23.183Z,24.9372
2023-04-29T09:39:24.516Z,24.9401
2023-04-29T09:40:26.019Z,24.8981
2023-04-29T09:41:27.390Z,24.9050
2023-04-29T09:42:28.809Z,24.9130
2023-04-29T09:43:30.279Z,24.8825
2023-04-29T09:44:34.294Z,24.8516
2023-04-29T09:45:33.107Z,24.8581
2023-04-29T09:46:34.597Z,24.8360
2023-04-29T09:47:36.072Z,24.8477
2023-04-29T09:48:37.424Z,24.8538
2023-04-29T09:49:38.913Z,24.8730
2023-04-29T09:50:40.252Z,24.8909
2023-04-29T09:51:41.679Z,24.8994
2023-04-29T09:52:43.031Z,24.8653
2023-04-29T09:53:44.617Z,24.8745
2023-04-29T09:54:45.977Z,24.8692
2023-04-29T09:55:47.363Z,24.8425
2023-04-29T09:56:48.773Z,24.8092
2023-04-29T09:57:50.226Z,24.7848
2023-04-29T09:58:51.696Z,24.7723
2023-04-29T09:59:53.063Z,24.7824
2023-04-29T10:00:54.464Z,24.8244
2023-04-29T10:01:56.239Z,24.8358
2023-04-29T10:02:57.486Z,24.8262
2023-04-29T10:03:58.901Z,24.8246
2023-04-29T10:05:00.233Z,24.8482
2023-04-29T10:06:01.671Z,24.8485
2023-04-29T10:07:03.032Z,24.8764
2023-04-29T10:08:04.505Z,24.8875
2023-04-29T10:09:05.918Z,24.8954
2023-04-29T10:10:07.327Z,24.8990
2023-04-29T10:11:08.709Z,24.9018
2023-04-29T10:12:10.171Z,24.9170
2023-04-29T10:13:11.501Z,24.9132
2023-04-29T10:14:13.028Z,24.9206
2023-04-29T10:15:14.420Z,24.9290
2023-04-29T10:16:15.894Z,24.9232
2023-04-29T10:17:17.157Z,24.9175
2023-04-29T10:18:18.790Z,24.9127
2023-04-29T10:19:20.157Z,24.8803
2023-04-29T10:20:21.594Z,24.8437
2023-04-29T10:21:22.913Z,24.8302
2023-04-29T10:22:24.372Z,24.8334
2023-04-29T10:23:25.824Z,24.8096
2023-04-29T10:24:27.320Z,24.7783
2023-04-29T10:25:28.683Z,24.7658
2023-04-29T10:26:30.098Z,24.7670
2023-04-29T10:27:31.514Z,24.8014
2023-04-29T10:28:32.954Z,24.8316
2023-04-29T10:29:34.399Z,24.8433
2023-04-29T10:30:35.780Z,24.8454
2023-04-29T10:31:37.265Z,24.8450
2023-04-29T10:33:40.150Z,24.8427
2023-04-29T10:34:41.529Z,24.8301
2023-04-29T10:35:42.997Z,24.8346
2023-04-29T10:36:44.230Z,24.8383
2023-04-29T10:37:45.774Z,24.8378
2023-04-29T10:38:47.182Z,24.8231
2023-04-29T10:39:48.654Z,24.8432
2023-04-29T10:40:50.000Z,24.8682
2023-04-29T10:41:51.469Z,24.8628
2023-04-29T10:42:52.849Z,24.8450
2023-04-29T10:43:54.349Z,24.8514
2023-04-29T10:44:55.741Z,24.8516
2023-04-29T10:45:57.235Z,24.8345
2023-04-29T10:46:58.687Z,24.8182
2023-04-29T10:48:00.051Z,24.8146
2023-04-29T10:49:01.452Z,24.8112
2023-04-29T10:50:02.846Z,24.8099
2023-04-29T10:51:04.374Z,24.8204
2023-04-29T10:52:05.687Z,24.8223
2023-04-29T10:53:07.149Z,24.8242
2023-04-29T10:54:08.561Z,24.8267
2023-04-29T10:55:10.013Z,24.8412
2023-04-29T10:56:11.368Z,24.8230
2023-04-29T10:57:12.828Z,24.7575
2023-04-29T10:58:14.222Z,24.6926
2023-04-29T10:59:15.701Z,24.6967
2023-04-29T11:00:17.142Z,24.6693
2023-04-29T11:01:18.592Z,24.6395
2023-04-29T11:02:19.974Z,24.6258
2023-04-29T11:03:21.528Z,24.6413
2023-04-29T11:04:22.817Z,24.6351
2023-04-29T11:05:25.146Z,24.6177
2023-04-29T11:06:25.760Z,24.6424
2023-04-29T11:07:27.142Z,24.6792
2023-04-29T11:08:28.461Z,24.7122
2023-04-29T11:09:29.953Z,24.7364
2023-04-29T11:10:31.265Z,24.7282
2023-04-29T11:11:32.830Z,24.7323
2023-04-29T11:12:34.220Z,24.6932
2023-04-29T11:13:35.677Z,24.6759
2023-04-29T11:14:37.031Z,24.6644
2023-04-29T11:15:38.418Z,24.6629
2023-04-29T11:16:39.975Z,24.6982
2023-04-29T11:17:41.481Z,24.6987
2023-04-29T11:18:42.781Z,24.7187
2023-04-29T11:19:44.254Z,24.7077
2023-04-29T11:20:45.669Z,24.6884
2023-04-29T11:21:47.177Z,24.6844
2023-04-29T11:22:48.506Z,24.7135
2023-04-29T11:23:49.941Z,24.8389
2023-04-29T11:24:51.489Z,24.9475
2023-04-29T11:25:52.743Z,25.0169
2023-04-29T11:26:54.237Z,25.1014
2023-04-29T11:27:55.671Z,25.1710
2023-04-29T11:28:56.923Z,25.2140
2023-04-29T11:29:58.719Z,25.2649
2023-04-29T11:31:00.000Z,25.2402
2023-04-29T11:32:01.413Z,25.2093
2023-04-29T11:33:02.793Z,25.1854
2023-04-29T11:34:04.219Z,25.2089
2023-04-29T11:35:05.545Z,25.1841
2023-04-29T11:36:06.897Z,25.2216
2023-04-29T11:37:08.430Z,25.2701
2023-04-29T11:38:09.889Z,25.3370
2023-04-29T11:39:11.258Z,25.4397
2023-04-29T11:40:12.808Z,25.4582
2023-04-29T11:41:14.111Z,25.4147
2023-04-29T11:42:15.725Z,25.4432
2023-04-29T11:43:17.095Z,25.4539
2023-04-29T11:44:18.540Z,25.4450
2023-04-29T11:45:19.920Z,25.4474
2023-04-29T11:46:21.383Z,25.4374
2023-04-29T11:47:22.827Z,25.4600
2023-04-29T11:48:24.254Z,25.4738
2023-04-29T11:49:25.619Z,25.5162
2023-04-29T11:50:27.103Z,25.5417
2023-04-29T11:51:28.529Z,25.5179
2023-04-29T11:52:30.000Z,25.2983
2023-04-29T11:53:31.405Z,25.0733
2023-04-29T11:54:32.773Z,24.9143
2023-04-29T11:55:34.184Z,24.7337
2023-04-29T11:56:35.612Z,24.7424
2023-04-29T11:57:37.134Z,24.7604
2023-04-29T11:58:38.566Z,24.7372
2023-04-29T11:59:39.926Z,24.7173
2023-04-29T12:00:41.299Z,24.7450
2023-04-29T12:01:42.781Z,24.6821
2023-04-29T12:02:44.352Z,24.6396
2023-04-29T12:03:45.966Z,24.6009
2023-04-29T12:04:47.310Z,24.5769
2023-04-29T12:05:48.648Z,24.5818
2023-04-29T12:06:49.879Z,24.6189
2023-04-29T12:07:51.434Z,24.6170
2023-04-29T12:08:52.788Z,24.6109
2023-04-29T12:09:54.195Z,24.5920
2023-04-29T12:10:55.591Z,24.6460
2023-04-29T12:11:57.025Z,24.6675
2023-04-29T12:12:58.482Z,24.6747
2023-04-29T12:14:00.047Z,24.6631
2023-04-29T12:15:01.322Z,24.6961
2023-04-29T12:16:02.843Z,24.7550
2023-04-29T12:17:04.235Z,24.7783
2023-04-29T12:18:05.754Z,24.8243
2023-04-29T12:19:07.068Z,24.9070
2023-04-29T12:20:08.454Z,24.9336
2023-04-29T12:21:09.843Z,24.9900
2023-04-29T12:22:11.318Z,25.0370
2023-04-29T12:23:12.743Z,25.0998
2023-04-29T12:24:14.233Z,25.1458